createdAt,value
2018-07-09T00:00:50.814Z,99.90
2018-07-09T00:03:18.518Z,99.90
2018-07-09T00:05:47.452Z,99.90
2018-07-09T00:08:15.611Z,99.90
2018-07-09T00:10:57.868Z,99.90
2018-07-09T00:13:26.039Z,99.90
2018-07-09T00:15:54.030Z,99.90
2018-07-09T00:18:21.743Z,99.90
2018-07-09T00:20:49.374Z,99.90
2018-07-09T00:23:16.962Z,99.90
2018-07-09T00:25:45.738Z,99.90
2018-07-09T00:28:13.433Z,99.90
2018-07-09T00:30:40.962Z,99.90
2018-07-09T00:33:08.798Z,99.90
2018-07-09T00:35:36.331Z,99.90
2018-07-09T00:38:04.154Z,99.90
2018-07-09T00:40:31.906Z,99.90
2018-07-09T00:42:59.497Z,99.90
2018-07-09T00:45:27.095Z,99.90
2018-07-09T00:47:55.084Z,99.90
2018-07-09T00:50:22.854Z,99.90
2018-07-09T00:52:50.824Z,99.90
2018-07-09T00:55:18.502Z,99.90
2018-07-09T00:57:46.140Z,99.90
2018-07-09T01:00:13.666Z,99.90
2018-07-09T01:02:41.216Z,99.90
2018-07-09T01:05:09.011Z,99.90
2018-07-09T01:07:36.822Z,99.90
2018-07-09T01:10:04.402Z,99.90
2018-07-09T01:12:31.934Z,99.90
2018-07-09T01:14:59.458Z,99.90
2018-07-09T01:17:27.022Z,99.90
2018-07-09T01:19:54.786Z,99.90
2018-07-09T01:22:22.640Z,99.90
2018-07-09T01:24:50.265Z,99.90
2018-07-09T01:27:17.809Z,99.90
2018-07-09T01:29:45.373Z,99.90
2018-07-09T01:32:13.040Z,99.90
2018-07-09T01:37:08.202Z,99.90
2018-07-09T01:39:35.746Z,99.90
2018-07-09T01:42:03.489Z,99.90
2018-07-09T01:44:31.015Z,99.90
2018-07-09T01:46:58.587Z,99.90
2018-07-09T01:49:26.918Z,99.90
2018-07-09T01:51:54.566Z,99.90
2018-07-09T01:56:49.714Z,99.90
2018-07-09T01:59:17.271Z,99.90
2018-07-09T02:01:45.981Z,99.90
2018-07-09T02:04:13.546Z,99.90
2018-07-09T02:06:41.115Z,99.90
2018-07-09T02:09:09.019Z,99.90
2018-07-09T02:11:37.303Z,99.90
2018-07-09T02:14:04.859Z,99.90
2018-07-09T02:16:32.439Z,99.90
2018-07-09T02:19:00.018Z,99.90
2018-07-09T02:21:27.648Z,99.90
2018-07-09T02:26:22.984Z,99.90
2018-07-09T02:28:50.619Z,99.90
2018-07-09T02:31:18.146Z,99.90
2018-07-09T02:33:46.673Z,99.90
2018-07-09T02:36:14.270Z,99.90
2018-07-09T02:38:41.806Z,99.90
2018-07-09T02:41:09.367Z,99.90
2018-07-09T02:43:37.027Z,99.90
2018-07-09T02:48:32.102Z,99.90
2018-07-09T02:50:59.662Z,99.90
2018-07-09T02:53:27.243Z,99.90
2018-07-09T02:55:54.775Z,99.90
2018-07-09T02:58:22.313Z,99.90
2018-07-09T03:00:50.077Z,99.90
2018-07-09T03:03:17.529Z,99.90
2018-07-09T03:05:45.077Z,99.90
2018-07-09T03:08:12.600Z,99.90
2018-07-09T03:10:40.297Z,99.90
2018-07-09T03:13:07.840Z,99.90
2018-07-09T03:15:35.396Z,99.90
2018-07-09T03:18:03.061Z,99.90
2018-07-09T03:20:30.626Z,99.90
2018-07-09T03:22:58.315Z,99.90
2018-07-09T03:25:25.894Z,99.90
2018-07-09T03:27:53.438Z,99.90
2018-07-09T03:30:21.026Z,99.90
2018-07-09T03:32:48.679Z,99.90
2018-07-09T03:35:16.306Z,99.90
2018-07-09T03:37:43.912Z,99.90
2018-07-09T03:40:11.589Z,99.90
2018-07-09T03:42:39.352Z,99.90
2018-07-09T03:45:06.959Z,99.90
2018-07-09T03:47:34.537Z,99.90
2018-07-09T03:50:02.103Z,99.90
2018-07-09T03:52:29.996Z,99.90
2018-07-09T03:54:57.592Z,99.90
2018-07-09T03:58:04.990Z,99.90
2018-07-09T04:00:32.517Z,99.90
2018-07-09T04:03:00.084Z,99.90
2018-07-09T04:05:27.642Z,99.90
2018-07-09T04:07:55.164Z,99.90
2018-07-09T04:10:22.782Z,99.90
2018-07-09T04:12:50.410Z,99.90
2018-07-09T04:15:17.998Z,99.90
2018-07-09T04:17:45.531Z,99.90
2018-07-09T04:20:13.099Z,99.90
2018-07-09T04:22:40.714Z,99.90
2018-07-09T04:25:08.309Z,99.90
2018-07-09T04:27:35.850Z,99.90
2018-07-09T04:30:03.466Z,99.90
2018-07-09T04:32:34.926Z,99.90
2018-07-09T04:35:02.635Z,99.90
2018-07-09T04:37:30.176Z,99.90
2018-07-09T04:39:57.912Z,99.90
2018-07-09T04:42:25.502Z,99.90
2018-07-09T04:44:53.036Z,99.90
2018-07-09T04:47:20.626Z,99.90
2018-07-09T04:49:48.198Z,99.90
2018-07-09T04:52:15.764Z,99.90
2018-07-09T04:54:43.308Z,99.90
2018-07-09T04:57:10.886Z,99.90
2018-07-09T05:02:06.129Z,99.90
2018-07-09T05:04:33.673Z,99.90
2018-07-09T05:07:01.255Z,99.90
2018-07-09T05:09:28.858Z,99.90
2018-07-09T05:11:56.494Z,99.90
2018-07-09T05:14:24.358Z,99.90
2018-07-09T05:16:51.972Z,99.90
2018-07-09T05:19:19.814Z,99.90
2018-07-09T05:21:47.347Z,99.90
2018-07-09T05:24:15.232Z,99.90
2018-07-09T05:26:42.794Z,99.90
2018-07-09T05:29:10.427Z,99.90
2018-07-09T05:31:38.027Z,99.90
2018-07-09T05:34:05.791Z,99.90
2018-07-09T05:36:33.322Z,99.90
2018-07-09T05:39:00.939Z,99.90
2018-07-09T05:41:28.545Z,99.90
2018-07-09T05:43:56.261Z,99.90
2018-07-09T05:46:23.963Z,99.50
2018-07-09T05:48:51.616Z,99.90
2018-07-09T05:51:19.128Z,99.50
2018-07-09T05:53:46.679Z,99.30
2018-07-09T05:56:14.175Z,98.80
2018-07-09T05:58:41.779Z,98.50
2018-07-09T06:01:09.334Z,98.80
2018-07-09T06:03:36.918Z,98.50
2018-07-09T06:06:05.088Z,98.50
2018-07-09T06:08:32.604Z,97.60
2018-07-09T06:13:27.718Z,96.50
2018-07-09T06:15:55.259Z,96.10
2018-07-09T06:18:22.804Z,95.70
2018-07-09T06:20:50.565Z,94.90
2018-07-09T06:23:18.174Z,94.80
2018-07-09T06:25:45.797Z,94.20
2018-07-09T06:28:13.373Z,94.40
2018-07-09T06:30:41.140Z,93.80
2018-07-09T06:35:36.492Z,92.40
2018-07-09T06:38:04.019Z,92.40
2018-07-09T06:40:31.583Z,91.90
2018-07-09T06:42:59.172Z,92.80
2018-07-09T06:45:26.748Z,92.30
2018-07-09T06:47:54.370Z,91.60
2018-07-09T06:50:21.942Z,91.50
2018-07-09T06:52:50.088Z,91.80
2018-07-09T06:55:17.655Z,91.60
2018-07-09T06:57:45.244Z,91.50
2018-07-09T07:00:12.814Z,90.70
2018-07-09T07:02:40.584Z,91.00
2018-07-09T07:05:08.123Z,90.80
2018-07-09T07:07:35.717Z,91.10
2018-07-09T07:10:03.319Z,91.40
2018-07-09T07:12:30.906Z,91.20
2018-07-09T07:17:25.959Z,89.50
2018-07-09T07:19:53.591Z,89.90
2018-07-09T07:22:21.181Z,85.70
2018-07-09T07:24:48.822Z,85.80
2018-07-09T07:27:16.344Z,84.70
2018-07-09T07:29:43.938Z,80.70
2018-07-09T07:32:11.609Z,80.90
2018-07-09T07:37:08.855Z,70.30
2018-07-09T07:39:36.389Z,68.00
2018-07-09T07:42:04.016Z,69.70
2018-07-09T07:44:31.560Z,70.40
2018-07-09T07:46:59.108Z,69.40
2018-07-09T07:49:26.698Z,65.00
2018-07-09T07:51:54.258Z,61.30
2018-07-09T07:54:21.849Z,59.90
2018-07-09T07:56:49.487Z,59.60
2018-07-09T07:59:17.334Z,57.90
2018-07-09T08:01:44.906Z,56.70
2018-07-09T08:04:12.478Z,57.20
2018-07-09T08:06:40.375Z,58.60
2018-07-09T08:09:08.075Z,58.90
2018-07-09T08:11:48.554Z,58.60
2018-07-09T08:14:03.235Z,56.10
2018-07-09T08:16:30.779Z,57.40
2018-07-09T08:18:58.351Z,56.70
2018-07-09T08:21:25.908Z,56.20
2018-07-09T08:23:53.423Z,54.20
2018-07-09T08:26:21.009Z,51.50
2018-07-09T08:28:48.638Z,49.90
2018-07-09T08:31:16.397Z,49.60
2018-07-09T08:33:43.866Z,48.50
2018-07-09T08:36:11.426Z,48.40
2018-07-09T08:38:39.012Z,49.90
2018-07-09T08:41:06.798Z,48.80
2018-07-09T08:43:34.396Z,49.80
2018-07-09T08:46:01.962Z,49.20
2018-07-09T08:48:29.802Z,49.40
2018-07-09T08:50:57.366Z,46.30
2018-07-09T08:53:24.920Z,47.00
2018-07-09T08:55:52.438Z,45.40
2018-07-09T08:58:20.008Z,44.40
2018-07-09T09:00:47.518Z,44.70
2018-07-09T09:03:15.015Z,44.40
2018-07-09T09:08:10.387Z,42.30
2018-07-09T09:10:37.894Z,41.40
2018-07-09T09:13:05.442Z,42.40
2018-07-09T09:15:32.975Z,43.40
2018-07-09T09:18:00.514Z,41.50
2018-07-09T09:20:28.045Z,41.70
2018-07-09T09:22:55.580Z,39.10
2018-07-09T09:25:23.335Z,38.90
2018-07-09T09:27:50.867Z,36.60
2018-07-09T09:30:18.637Z,34.90
2018-07-09T09:32:46.202Z,33.90
2018-07-09T09:35:13.726Z,35.10
2018-07-09T09:37:41.278Z,34.80
2018-07-09T09:40:08.797Z,33.80
2018-07-09T09:42:36.370Z,37.70
2018-07-09T09:45:04.419Z,39.10
2018-07-09T09:47:31.980Z,37.60
2018-07-09T09:49:59.472Z,35.80
2018-07-09T09:52:27.023Z,31.40
2018-07-09T09:54:54.589Z,34.90
2018-07-09T09:57:22.154Z,35.80
2018-07-09T09:59:49.748Z,35.40
2018-07-09T10:02:17.306Z,34.60
2018-07-09T10:04:45.417Z,34.10
2018-07-09T10:07:12.977Z,32.10
2018-07-09T10:09:40.562Z,33.20
2018-07-09T10:12:08.190Z,32.90
2018-07-09T10:14:35.727Z,33.60
2018-07-09T10:17:03.254Z,33.20
2018-07-09T10:19:30.783Z,32.60
2018-07-09T10:21:58.307Z,30.80
2018-07-09T10:24:25.898Z,33.10
2018-07-09T10:26:54.278Z,34.00
2018-07-09T10:29:21.814Z,34.00
2018-07-09T10:31:49.542Z,34.10
2018-07-09T10:34:17.079Z,36.30
2018-07-09T10:36:44.926Z,36.10
2018-07-09T10:39:12.449Z,36.50
2018-07-09T10:44:07.477Z,38.50
2018-07-09T10:46:35.337Z,39.20
2018-07-09T10:53:58.560Z,39.90
2018-07-09T10:56:26.158Z,37.90
2018-07-09T10:58:53.690Z,39.10
2018-07-09T11:01:22.690Z,38.40
2018-07-09T11:03:50.882Z,39.80
2018-07-09T11:06:18.438Z,39.10
2018-07-09T11:08:46.412Z,39.80
2018-07-09T11:11:13.970Z,38.90
2018-07-09T11:13:41.518Z,40.30
2018-07-09T11:16:09.574Z,39.30
2018-07-09T11:18:37.097Z,42.60
2018-07-09T11:21:04.700Z,42.90
2018-07-09T11:23:32.438Z,36.40
2018-07-09T11:26:00.116Z,38.70
2018-07-09T11:28:27.666Z,35.90
2018-07-09T11:33:24.666Z,31.00
2018-07-09T11:35:54.755Z,30.00
2018-07-09T11:38:22.333Z,32.50
2018-07-09T11:40:49.982Z,35.10
2018-07-09T11:43:17.519Z,36.50
2018-07-09T11:48:12.769Z,37.50
2018-07-09T11:50:40.338Z,37.30
2018-07-09T11:53:07.874Z,38.50
2018-07-09T11:55:35.378Z,40.50
2018-07-09T11:58:02.931Z,41.80
2018-07-09T12:02:57.967Z,40.70
2018-07-09T12:05:25.528Z,39.70
2018-07-09T12:07:54.183Z,39.50
2018-07-09T12:10:21.723Z,39.20
2018-07-09T12:12:49.286Z,38.70
2018-07-09T12:15:16.851Z,37.70
2018-07-09T12:17:44.450Z,33.40
2018-07-09T12:20:11.991Z,37.10
2018-07-09T12:22:39.509Z,35.90
2018-07-09T12:25:07.064Z,34.60
2018-07-09T12:30:02.297Z,32.70
2018-07-09T12:32:29.931Z,34.30
2018-07-09T12:34:57.531Z,36.50
2018-07-09T12:37:25.086Z,35.40
2018-07-09T12:39:52.672Z,33.30
2018-07-09T12:42:20.242Z,35.20
2018-07-09T12:44:47.794Z,32.50
2018-07-09T12:47:15.354Z,32.00
2018-07-09T12:49:42.898Z,31.10
2018-07-09T12:52:10.488Z,32.90
2018-07-09T12:54:38.019Z,30.30
2018-07-09T12:57:05.558Z,32.90
2018-07-09T12:59:33.139Z,32.90
2018-07-09T13:02:00.638Z,33.50
2018-07-09T13:04:28.242Z,34.00
2018-07-09T13:06:55.882Z,34.90
2018-07-09T13:09:23.543Z,37.00
2018-07-09T13:14:18.835Z,37.60
2018-07-09T13:16:46.470Z,36.40
2018-07-09T13:19:13.994Z,38.60
2018-07-09T13:21:41.507Z,40.60
2018-07-09T13:24:09.435Z,34.50
2018-07-09T13:26:37.003Z,36.40
2018-07-09T13:29:04.601Z,37.70
2018-07-09T13:31:32.334Z,40.00
2018-07-09T13:33:59.926Z,38.70
2018-07-09T13:36:27.583Z,36.30
2018-07-09T13:38:55.427Z,34.60
2018-07-09T13:41:23.092Z,36.70
2018-07-09T13:43:50.771Z,38.20
2018-07-09T13:46:18.333Z,36.40
2018-07-09T13:48:49.635Z,37.80
2018-07-09T13:51:17.129Z,35.70
2018-07-09T13:53:45.042Z,37.10
2018-07-09T13:56:12.610Z,38.00
2018-07-09T13:58:40.165Z,38.40
2018-07-09T14:01:08.239Z,38.10
2018-07-09T14:03:35.827Z,39.20
2018-07-09T14:06:03.454Z,38.20
2018-07-09T14:10:58.482Z,34.00
2018-07-09T14:13:26.034Z,35.10
2018-07-09T14:15:53.584Z,35.20
2018-07-09T14:18:21.130Z,36.10
2018-07-09T14:20:48.765Z,35.90
2018-07-09T14:23:18.337Z,35.40
2018-07-09T14:25:46.044Z,32.80
2018-07-09T14:28:13.643Z,32.00
2018-07-09T14:30:41.184Z,30.90
2018-07-09T14:33:09.510Z,33.50
2018-07-09T14:35:37.045Z,34.50
2018-07-09T14:38:04.826Z,34.50
2018-07-09T14:40:32.365Z,33.80
2018-07-09T14:42:59.896Z,31.40
2018-07-09T14:45:27.418Z,32.00
2018-07-09T14:47:54.975Z,31.70
2018-07-09T14:50:22.550Z,33.40
2018-07-09T14:52:50.902Z,33.60
2018-07-09T14:57:47.322Z,35.00
2018-07-09T15:00:14.855Z,33.70
2018-07-09T15:02:42.430Z,34.80
2018-07-09T15:05:10.266Z,34.50
2018-07-09T15:07:37.845Z,33.80
2018-07-09T15:10:05.553Z,36.10
2018-07-09T15:12:33.128Z,36.90
2018-07-09T15:15:00.674Z,36.80
2018-07-09T15:17:28.270Z,36.50
2018-07-09T15:19:55.785Z,34.30
2018-07-09T15:24:51.135Z,35.60
2018-07-09T15:27:18.684Z,36.40
2018-07-09T15:29:46.256Z,35.40
2018-07-09T15:32:19.229Z,35.30
2018-07-09T15:34:47.296Z,35.40
2018-07-09T15:37:14.910Z,37.10
2018-07-09T15:39:42.734Z,38.60
2018-07-09T15:42:10.437Z,37.90
2018-07-09T15:44:38.012Z,38.70
2018-07-09T15:47:05.795Z,38.20
2018-07-09T15:49:33.856Z,36.70
2018-07-09T15:52:01.782Z,38.40
2018-07-09T15:54:30.043Z,38.60
2018-07-09T15:56:57.850Z,40.10
2018-07-09T15:59:25.500Z,39.10
2018-07-09T16:01:53.062Z,39.20
2018-07-09T16:04:20.663Z,40.20
2018-07-09T16:09:15.967Z,38.70
2018-07-09T16:11:43.531Z,39.60
2018-07-09T16:14:11.046Z,40.30
2018-07-09T16:16:38.796Z,40.20
2018-07-09T16:19:06.318Z,41.00
2018-07-09T16:21:34.034Z,42.00
2018-07-09T16:24:01.743Z,40.50
2018-07-09T16:26:29.318Z,40.60
2018-07-09T16:28:56.929Z,42.20
2018-07-09T16:31:24.786Z,42.60
2018-07-09T16:33:52.345Z,42.00
2018-07-09T16:36:20.164Z,41.00
2018-07-09T16:38:48.698Z,41.40
2018-07-09T16:41:16.226Z,41.70
2018-07-09T16:43:43.785Z,39.60
2018-07-09T16:46:12.667Z,39.80
2018-07-09T16:48:40.237Z,39.00
2018-07-09T16:51:07.833Z,39.00
2018-07-09T16:53:35.499Z,40.00
2018-07-09T16:56:03.268Z,42.00
2018-07-09T16:58:30.926Z,41.80
2018-07-09T17:01:07.345Z,41.40
2018-07-09T17:03:34.890Z,43.20
2018-07-09T17:06:04.927Z,42.80
2018-07-09T17:08:32.505Z,41.60
2018-07-09T17:11:00.081Z,42.10
2018-07-09T17:13:27.644Z,43.00
2018-07-09T17:15:55.189Z,44.50
2018-07-09T17:18:22.780Z,43.60
2018-07-09T17:20:50.339Z,44.20
2018-07-09T17:23:18.379Z,43.80
2018-07-09T17:25:45.909Z,43.70
2018-07-09T17:28:13.472Z,44.80
2018-07-09T17:33:09.747Z,45.30
2018-07-09T17:35:37.315Z,44.30
2018-07-09T17:38:04.862Z,45.00
2018-07-09T17:40:32.430Z,44.10
2018-07-09T17:43:00.081Z,44.40
2018-07-09T17:45:27.728Z,44.60
2018-07-09T17:47:55.243Z,45.50
2018-07-09T17:50:22.822Z,45.30
2018-07-09T17:52:50.563Z,46.00
2018-07-09T17:55:18.222Z,46.80
2018-07-09T17:57:45.819Z,46.50
2018-07-09T18:00:13.391Z,46.70
2018-07-09T18:02:41.070Z,47.40
2018-07-09T18:05:08.795Z,46.60
2018-07-09T18:07:36.494Z,47.00
2018-07-09T18:10:04.126Z,46.80
2018-07-09T18:12:31.837Z,46.70
2018-07-09T18:14:59.441Z,46.30
2018-07-09T18:17:27.097Z,45.60
2018-07-09T18:19:54.694Z,46.30
2018-07-09T18:22:22.406Z,45.10
2018-07-09T18:24:50.227Z,45.60
2018-07-09T18:27:17.869Z,46.00
2018-07-09T18:29:45.440Z,45.70
2018-07-09T18:32:13.006Z,46.50
2018-07-09T18:34:40.564Z,46.80
2018-07-09T18:39:35.666Z,47.30
2018-07-09T18:42:03.332Z,47.80
2018-07-09T18:44:30.972Z,48.30
2018-07-09T18:46:58.689Z,48.90
2018-07-09T18:49:26.247Z,48.80
2018-07-09T18:51:53.813Z,49.30
2018-07-09T18:56:49.475Z,49.40
2018-07-09T18:59:17.064Z,49.30
2018-07-09T19:01:44.686Z,49.50
2018-07-09T19:04:12.299Z,50.00
2018-07-09T19:06:53.916Z,50.40
2018-07-09T19:09:22.402Z,51.00
2018-07-09T19:14:18.893Z,51.90
2018-07-09T19:16:58.026Z,52.30
2018-07-09T19:19:36.867Z,52.30
2018-07-09T19:22:04.560Z,52.70
2018-07-09T19:26:59.508Z,52.20
2018-07-09T19:29:26.077Z,52.50
2018-07-09T19:31:52.750Z,52.50
2018-07-09T19:34:19.364Z,53.10
2018-07-09T19:36:52.172Z,52.90
2018-07-09T19:39:24.446Z,53.70
2018-07-09T19:44:26.231Z,53.30
2018-07-09T19:47:06.349Z,53.30
2018-07-09T19:49:32.968Z,54.00
2018-07-09T19:51:59.527Z,53.50
2018-07-09T19:54:26.058Z,53.40
2018-07-09T19:56:52.729Z,53.40
2018-07-09T19:59:23.226Z,52.60
2018-07-09T20:02:05.370Z,53.10
2018-07-09T20:04:31.878Z,52.70
2018-07-09T20:06:58.438Z,52.80
2018-07-09T20:09:31.845Z,52.80
2018-07-09T20:12:05.314Z,52.70
2018-07-09T20:15:36.367Z,52.70
2018-07-09T20:18:03.259Z,52.70
2018-07-09T20:20:30.130Z,52.30
2018-07-09T20:23:05.998Z,52.80
2018-07-09T20:25:32.578Z,52.70
2018-07-09T20:27:59.154Z,52.60
2018-07-09T20:30:25.745Z,52.80
2018-07-09T20:32:52.355Z,52.90
2018-07-09T20:35:18.850Z,52.40
2018-07-09T20:37:45.373Z,52.20
2018-07-09T20:40:11.916Z,52.70
2018-07-09T20:42:38.452Z,52.90
2018-07-09T20:45:06.583Z,52.40
2018-07-09T20:47:33.505Z,52.60
2018-07-09T20:50:00.064Z,52.30
2018-07-09T20:52:26.587Z,51.80
2018-07-09T20:54:53.089Z,51.60
2018-07-09T20:57:19.636Z,51.60
2018-07-09T20:59:46.217Z,51.60
2018-07-09T21:02:12.808Z,52.20
2018-07-09T21:04:39.368Z,52.40
2018-07-09T21:07:05.967Z,52.90
2018-07-09T21:09:33.044Z,53.10
2018-07-09T21:12:03.764Z,53.50
2018-07-09T21:14:30.292Z,53.60
2018-07-09T21:16:56.879Z,53.90
2018-07-09T21:19:23.405Z,54.30
2018-07-09T21:21:49.939Z,54.40
2018-07-09T21:24:16.473Z,54.50
2018-07-09T21:26:43.123Z,54.60
2018-07-09T21:29:09.782Z,54.80
2018-07-09T21:31:36.450Z,55.40
2018-07-09T21:34:03.047Z,55.40
2018-07-09T21:36:29.568Z,55.90
2018-07-09T21:38:56.080Z,56.30
2018-07-09T21:41:22.621Z,56.40
2018-07-09T21:43:49.431Z,56.60
2018-07-09T21:46:15.942Z,56.80
2018-07-09T21:48:42.540Z,57.10
2018-07-09T21:51:09.184Z,57.30
2018-07-09T21:53:35.792Z,57.80
2018-07-09T21:56:02.295Z,57.80
2018-07-09T21:58:28.850Z,58.10
2018-07-09T22:00:55.434Z,58.90
2018-07-09T22:03:21.959Z,59.40
2018-07-09T22:05:48.510Z,59.80
2018-07-09T22:08:15.023Z,60.10
2018-07-09T22:10:41.885Z,60.30
2018-07-09T22:13:08.426Z,60.60
2018-07-09T22:15:35.111Z,61.00
2018-07-09T22:18:01.660Z,61.40
2018-07-09T22:20:28.351Z,61.40
2018-07-09T22:22:54.942Z,61.90
2018-07-09T22:25:21.485Z,63.00
2018-07-09T22:27:48.240Z,62.30
2018-07-09T22:30:17.393Z,62.70
2018-07-09T22:32:44.966Z,63.20
2018-07-09T22:35:12.547Z,63.20
2018-07-09T22:37:40.090Z,63.40
2018-07-09T22:40:07.702Z,64.30
2018-07-09T22:42:35.225Z,64.60
2018-07-09T22:45:02.793Z,64.60
2018-07-09T22:47:30.475Z,64.70
2018-07-09T22:49:58.043Z,65.90
2018-07-09T22:55:04.931Z,67.50
2018-07-09T22:57:32.602Z,67.40
2018-07-09T23:00:00.199Z,67.90
2018-07-09T23:02:27.784Z,68.40
2018-07-09T23:04:55.319Z,68.80
2018-07-09T23:07:22.843Z,69.40
2018-07-09T23:10:11.845Z,70.00
2018-07-09T23:16:02.870Z,71.30
2018-07-09T23:18:41.809Z,73.20
2018-07-09T23:22:27.476Z,74.80
2018-07-09T23:24:54.058Z,74.60
2018-07-09T23:27:20.602Z,73.90
2018-07-09T23:29:47.182Z,75.60
2018-07-09T23:32:13.831Z,77.80
2018-07-09T23:34:40.492Z,79.20
2018-07-09T23:37:07.110Z,80.00
2018-07-09T23:39:33.660Z,81.70
2018-07-09T23:42:00.239Z,83.30
2018-07-09T23:44:26.753Z,84.60
2018-07-09T23:46:53.266Z,85.50
2018-07-09T23:49:19.771Z,87.10
2018-07-09T23:54:13.263Z,87.80
2018-07-09T23:59:00.126Z,87.40
